createdAt,value
2018-04-07T00:00:18.823Z,10.50
2018-04-07T00:02:45.863Z,8.03
2018-04-07T00:05:12.926Z,8.37
2018-04-07T00:07:39.943Z,7.97
2018-04-07T00:10:07.003Z,9.07
2018-04-07T00:12:34.103Z,8.30
2018-04-07T00:15:01.163Z,9.00
2018-04-07T00:17:28.223Z,8.80
2018-04-07T00:19:55.324Z,9.90
2018-04-07T00:22:22.424Z,9.57
2018-04-07T00:24:49.623Z,9.33
2018-04-07T00:27:16.663Z,10.03
2018-04-07T00:29:43.863Z,7.47
2018-04-07T00:32:11.628Z,9.23
2018-04-07T00:34:39.384Z,9.27
2018-04-07T00:37:07.257Z,10.53
2018-04-07T00:39:34.285Z,10.70
2018-04-07T00:42:01.384Z,10.57
2018-04-07T00:44:29.184Z,9.20
2018-04-07T00:46:56.203Z,10.93
2018-04-07T00:49:23.243Z,12.23
2018-04-07T00:51:50.305Z,7.67
2018-04-07T00:54:17.303Z,10.57
2018-04-07T00:56:44.344Z,11.57
2018-04-07T00:59:11.383Z,11.07
2018-04-07T01:01:38.445Z,11.13
2018-04-07T01:04:05.482Z,10.33
2018-04-07T01:06:32.583Z,11.40
2018-04-07T01:08:59.644Z,9.37
2018-04-07T01:11:26.683Z,10.07
2018-04-07T01:13:53.703Z,10.43
2018-04-07T01:16:20.743Z,11.50
2018-04-07T01:18:54.683Z,9.43
2018-04-07T01:21:21.750Z,11.40
2018-04-07T01:23:48.763Z,8.53
2018-04-07T01:26:16.584Z,9.40
2018-04-07T01:28:43.623Z,9.93
2018-04-07T01:31:10.742Z,11.10
2018-04-07T01:33:37.863Z,9.77
2018-04-07T01:36:04.903Z,8.00
2018-04-07T01:38:31.983Z,8.13
2018-04-07T01:40:58.983Z,10.13
2018-04-07T01:43:26.063Z,8.03
2018-04-07T01:45:53.063Z,9.83
2018-04-07T01:48:20.103Z,9.60
2018-04-07T01:50:47.183Z,9.70
2018-04-07T01:53:14.203Z,9.83
2018-04-07T01:55:41.223Z,8.93
2018-04-07T01:58:08.365Z,8.90
2018-04-07T02:00:35.483Z,7.43
2018-04-07T02:03:02.583Z,9.80
2018-04-07T02:05:29.723Z,8.33
2018-04-07T02:07:56.783Z,8.20
2018-04-07T02:10:23.883Z,8.43
2018-04-07T02:12:50.905Z,6.00
2018-04-07T02:15:18.023Z,9.20
2018-04-07T02:17:45.144Z,6.40
2018-04-07T02:20:12.184Z,9.53
2018-04-07T02:22:39.272Z,11.33
2018-04-07T02:25:06.283Z,7.50
2018-04-07T02:27:33.303Z,8.20
2018-04-07T02:30:00.430Z,8.60
2018-04-07T02:32:27.487Z,8.47
2018-04-07T02:34:54.523Z,8.70
2018-04-07T02:37:21.585Z,8.20
2018-04-07T02:39:48.603Z,8.80
2018-04-07T02:42:15.646Z,8.57
2018-04-07T02:44:42.667Z,10.17
2018-04-07T02:47:09.703Z,8.73
2018-04-07T02:49:36.704Z,8.33
2018-04-07T02:52:03.703Z,7.03
2018-04-07T02:54:30.764Z,9.17
2018-04-07T02:56:57.860Z,10.10
2018-04-07T02:59:24.943Z,9.20
2018-04-07T03:01:52.045Z,9.47
2018-04-07T03:04:19.103Z,13.03
2018-04-07T03:06:46.923Z,14.23
2018-04-07T03:09:13.944Z,12.87
2018-04-07T03:11:41.053Z,10.37
2018-04-07T03:14:08.293Z,10.77
2018-04-07T03:16:35.419Z,12.57
2018-04-07T03:19:02.395Z,11.80
2018-04-07T03:21:29.343Z,11.07
2018-04-07T03:23:56.544Z,12.80
2018-04-07T03:26:23.613Z,12.90
2018-04-07T03:28:50.526Z,12.50
2018-04-07T03:31:17.584Z,16.93
2018-04-07T03:33:44.699Z,13.33
2018-04-07T03:36:12.623Z,13.50
2018-04-07T03:38:39.623Z,13.97
2018-04-07T03:41:06.586Z,10.77
2018-04-07T03:43:33.643Z,13.73
2018-04-07T03:46:00.743Z,13.17
2018-04-07T03:48:27.863Z,16.47
2018-04-07T03:50:54.983Z,10.73
2018-04-07T03:53:22.043Z,17.03
2018-04-07T03:55:49.143Z,14.63
2018-04-07T03:58:16.202Z,12.23
2018-04-07T04:00:43.303Z,13.80
2018-04-07T04:03:10.383Z,17.60
2018-04-07T04:05:38.186Z,16.90
2018-04-07T04:08:05.223Z,15.63
2018-04-07T04:10:32.343Z,15.93
2018-04-07T04:12:59.383Z,15.07
2018-04-07T04:15:26.503Z,15.50
2018-04-07T04:17:53.543Z,16.03
2018-04-07T04:20:20.603Z,14.80
2018-04-07T04:22:47.703Z,14.63
2018-04-07T04:25:14.783Z,15.60
2018-04-07T04:27:41.783Z,16.73
2018-04-07T04:30:08.903Z,13.33
2018-04-07T04:32:35.943Z,14.83
2018-04-07T04:35:03.024Z,12.83
2018-04-07T04:37:30.066Z,16.93
2018-04-07T04:39:57.063Z,15.53
2018-04-07T04:42:24.184Z,16.53
2018-04-07T04:44:51.223Z,17.53
2018-04-07T04:47:18.263Z,16.63
2018-04-07T04:49:45.346Z,16.33
2018-04-07T04:52:12.303Z,16.37
2018-04-07T04:54:39.343Z,17.30
2018-04-07T04:57:06.363Z,14.63
2018-04-07T04:59:33.403Z,18.83
2018-04-07T05:02:00.504Z,18.60
2018-04-07T05:04:27.542Z,16.20
2018-04-07T05:06:54.623Z,16.17
2018-04-07T05:09:21.663Z,13.97
2018-04-07T05:11:49.423Z,17.87
2018-04-07T05:14:16.502Z,18.77
2018-04-07T05:16:43.624Z,14.67
2018-04-07T05:19:11.463Z,13.97
2018-04-07T05:21:38.523Z,22.83
2018-04-07T05:24:05.583Z,15.70
2018-04-07T05:26:32.624Z,13.30
2018-04-07T05:28:59.622Z,13.43
2018-04-07T05:31:27.670Z,13.90
2018-04-07T05:33:54.843Z,16.07
2018-04-07T05:36:21.862Z,16.47
2018-04-07T05:38:48.843Z,18.80
2018-04-07T05:41:15.866Z,13.73
2018-04-07T05:43:42.930Z,13.50
2018-04-07T05:46:09.963Z,15.53
2018-04-07T05:48:36.922Z,14.97
2018-04-07T05:51:03.943Z,14.20
2018-04-07T05:53:30.982Z,14.83
2018-04-07T05:55:58.022Z,11.00
2018-04-07T05:58:25.063Z,14.50
2018-04-07T06:00:52.125Z,11.50
2018-04-07T06:03:19.229Z,14.07
2018-04-07T06:05:46.291Z,13.43
2018-04-07T06:08:13.562Z,18.93
2018-04-07T06:10:41.588Z,14.17
2018-04-07T06:13:08.758Z,16.60
2018-04-07T06:15:36.123Z,13.73
2018-04-07T06:18:03.403Z,17.00
2018-04-07T06:20:31.405Z,14.23
2018-04-07T06:22:58.578Z,13.17
2018-04-07T06:25:25.803Z,13.20
2018-04-07T06:27:52.903Z,16.43
2018-04-07T06:30:20.043Z,15.93
2018-04-07T06:32:47.263Z,21.43
2018-04-07T06:35:14.522Z,14.00
2018-04-07T06:37:41.734Z,13.07
2018-04-07T06:40:09.022Z,12.90
2018-04-07T06:42:36.102Z,13.70
2018-04-07T06:45:03.463Z,10.53
2018-04-07T06:47:30.663Z,12.30
2018-04-07T06:49:57.782Z,14.03
2018-04-07T06:52:25.002Z,14.73
2018-04-07T06:54:52.285Z,10.37
2018-04-07T06:57:20.303Z,13.87
2018-04-07T06:59:47.643Z,12.30
2018-04-07T07:02:14.867Z,14.77
2018-04-07T07:04:42.103Z,13.33
2018-04-07T07:07:09.324Z,13.27
2018-04-07T07:09:36.623Z,12.50
2018-04-07T07:12:03.825Z,13.93
2018-04-07T07:14:31.002Z,13.27
2018-04-07T07:16:58.342Z,11.87
2018-04-07T07:19:26.284Z,13.57
2018-04-07T07:21:53.463Z,15.33
2018-04-07T07:24:20.719Z,12.80
2018-04-07T07:26:47.942Z,17.73
2018-04-07T07:29:15.064Z,15.00
2018-04-07T07:31:42.922Z,13.53
2018-04-07T07:34:10.102Z,16.00
2018-04-07T07:36:37.519Z,17.50
2018-04-07T07:39:05.882Z,12.33
2018-04-07T07:41:33.743Z,15.07
2018-04-07T07:44:01.002Z,14.90
2018-04-07T07:46:28.943Z,10.93
2018-04-07T07:48:56.262Z,11.03
2018-04-07T07:51:23.544Z,15.20
2018-04-07T07:53:50.844Z,12.37
2018-04-07T07:56:18.023Z,14.37
2018-04-07T07:58:45.222Z,11.03
2018-04-07T08:01:12.362Z,10.37
2018-04-07T08:03:39.483Z,10.97
2018-04-07T08:06:06.682Z,14.23
2018-04-07T08:08:34.437Z,13.20
2018-04-07T08:11:01.623Z,13.10
2018-04-07T08:13:28.651Z,12.97
2018-04-07T08:15:55.870Z,11.33
2018-04-07T08:18:23.883Z,13.37
2018-04-07T08:20:50.972Z,14.40
2018-04-07T08:23:18.203Z,9.63
2018-04-07T08:25:45.405Z,13.37
2018-04-07T08:28:12.565Z,12.00
2018-04-07T08:30:39.538Z,10.70
2018-04-07T08:33:06.652Z,11.87
2018-04-07T08:35:33.925Z,12.13
2018-04-07T08:38:01.242Z,9.10
2018-04-07T08:40:29.483Z,15.83
2018-04-07T08:42:56.682Z,10.17
2018-04-07T08:45:24.415Z,10.33
2018-04-07T08:47:51.453Z,12.20
2018-04-07T08:50:18.583Z,9.83
2018-04-07T08:52:45.544Z,9.77
2018-04-07T08:55:12.842Z,12.27
2018-04-07T08:57:39.853Z,12.70
2018-04-07T09:00:06.994Z,11.83
2018-04-07T09:02:34.132Z,11.30
2018-04-07T09:05:01.182Z,10.07
2018-04-07T09:07:28.274Z,9.27
2018-04-07T09:09:56.283Z,9.27
2018-04-07T09:12:23.538Z,12.20
2018-04-07T09:14:50.683Z,10.07
2018-04-07T09:17:17.906Z,9.30
2018-04-07T09:19:45.957Z,11.97
2018-04-07T09:22:13.062Z,10.17
2018-04-07T09:24:40.184Z,9.03
2018-04-07T09:27:07.403Z,12.07
2018-04-07T09:29:35.482Z,9.63
2018-04-07T09:32:03.403Z,7.70
2018-04-07T09:34:31.482Z,9.27
2018-04-07T09:36:58.763Z,12.50
2018-04-07T09:39:25.962Z,9.33
2018-04-07T09:41:53.244Z,11.20
2018-04-07T09:44:20.524Z,9.60
2018-04-07T09:46:48.442Z,9.40
2018-04-07T09:49:15.642Z,7.90
2018-04-07T09:51:42.902Z,8.47
2018-04-07T09:54:09.862Z,8.93
2018-04-07T09:56:37.066Z,7.67
2018-04-07T09:59:04.263Z,7.97
2018-04-07T10:01:31.562Z,15.03
2018-04-07T10:03:58.845Z,7.77
2018-04-07T10:06:26.282Z,8.87
2018-04-07T10:08:53.563Z,10.83
2018-04-07T10:11:21.498Z,8.87
2018-04-07T10:13:48.603Z,6.83
2018-04-07T10:16:15.783Z,8.80
2018-04-07T10:18:43.023Z,9.87
2018-04-07T10:21:10.184Z,8.70
2018-04-07T10:23:37.404Z,9.03
2018-04-07T10:26:04.926Z,7.10
2018-04-07T10:28:32.903Z,9.47
2018-04-07T10:31:00.103Z,8.07
2018-04-07T10:33:28.110Z,7.53
2018-04-07T10:35:56.063Z,7.10
2018-04-07T10:38:24.043Z,8.10
2018-04-07T10:40:51.243Z,10.27
2018-04-07T10:43:18.603Z,7.77
2018-04-07T10:45:45.883Z,7.40
2018-04-07T10:48:13.183Z,8.47
2018-04-07T10:50:41.009Z,7.93
2018-04-07T10:53:08.203Z,10.13
2018-04-07T10:55:35.322Z,7.10
2018-04-07T10:58:02.423Z,8.27
2018-04-07T11:00:29.543Z,9.90
2018-04-07T11:02:56.763Z,8.30
2018-04-07T11:05:24.043Z,9.40
2018-04-07T11:07:51.323Z,9.00
2018-04-07T11:10:18.523Z,6.97
2018-04-07T11:12:45.723Z,9.30
2018-04-07T11:15:13.002Z,4.90
2018-04-07T11:17:40.183Z,8.20
2018-04-07T11:20:07.323Z,7.60
2018-04-07T11:22:34.525Z,8.47
2018-04-07T11:25:01.723Z,7.43
2018-04-07T11:27:29.625Z,8.90
2018-04-07T11:29:56.804Z,6.20
2018-04-07T11:32:24.744Z,6.60
2018-04-07T11:34:51.962Z,11.70
2018-04-07T11:37:19.243Z,6.83
2018-04-07T11:39:46.463Z,5.17
2018-04-07T11:42:13.642Z,7.93
2018-04-07T11:44:40.925Z,7.53
2018-04-07T11:47:08.923Z,7.93
2018-04-07T11:49:36.223Z,5.93
2018-04-07T11:52:03.423Z,6.63
2018-04-07T11:54:30.762Z,7.23
2018-04-07T11:56:58.764Z,4.83
2018-04-07T11:59:25.975Z,5.87
2018-04-07T12:01:53.383Z,6.70
2018-04-07T12:04:20.503Z,5.73
2018-04-07T12:06:48.442Z,5.97
2018-04-07T12:09:15.635Z,5.77
2018-04-07T12:11:43.591Z,6.37
2018-04-07T12:14:10.923Z,5.33
2018-04-07T12:16:38.043Z,6.07
2018-04-07T12:19:05.243Z,4.87
2018-04-07T12:21:32.456Z,9.63
2018-04-07T12:23:59.644Z,7.63
2018-04-07T12:26:26.711Z,6.93
2018-04-07T12:28:54.662Z,5.27
2018-04-07T12:31:21.863Z,5.67
2018-04-07T12:33:49.078Z,5.03
2018-04-07T12:36:16.363Z,6.27
2018-04-07T12:38:43.565Z,4.50
2018-04-07T12:41:10.782Z,4.43
2018-04-07T12:43:38.763Z,5.13
2018-04-07T12:46:06.201Z,7.43
2018-04-07T12:48:33.383Z,6.30
2018-04-07T12:51:00.682Z,6.37
2018-04-07T12:53:28.042Z,7.07
2018-04-07T12:55:55.242Z,4.83
2018-04-07T12:58:22.422Z,3.70
2018-04-07T13:00:49.462Z,4.87
2018-04-07T13:03:16.662Z,4.23
2018-04-07T13:05:43.783Z,3.50
2018-04-07T13:08:10.818Z,2.60
2018-04-07T13:10:37.886Z,3.60
2018-04-07T13:13:05.083Z,8.70
2018-04-07T13:15:32.363Z,5.33
2018-04-07T13:18:00.362Z,2.87
2018-04-07T13:20:27.499Z,4.53
2018-04-07T13:22:54.742Z,3.33
2018-04-07T13:25:21.802Z,3.23
2018-04-07T13:27:49.005Z,2.43
2018-04-07T13:30:16.222Z,2.97
2018-04-07T13:32:43.222Z,4.60
2018-04-07T13:35:10.343Z,3.13
2018-04-07T13:37:37.503Z,2.40
2018-04-07T13:40:04.633Z,6.93
2018-04-07T13:42:31.619Z,4.43
2018-04-07T13:44:58.626Z,2.93
2018-04-07T13:47:25.723Z,2.37
2018-04-07T13:49:52.923Z,2.73
2018-04-07T13:52:20.134Z,4.03
2018-04-07T13:54:47.324Z,3.20
2018-04-07T13:57:14.542Z,2.93
2018-04-07T13:59:41.739Z,2.20
2018-04-07T14:02:08.905Z,2.00
2018-04-07T14:04:36.102Z,2.27
2018-04-07T14:07:03.233Z,2.53
2018-04-07T14:09:30.286Z,3.13
2018-04-07T14:11:57.503Z,2.93
2018-04-07T14:14:24.843Z,2.07
2018-04-07T14:16:52.084Z,5.87
2018-04-07T14:19:19.307Z,2.43
2018-04-07T14:21:46.582Z,3.67
2018-04-07T14:24:13.715Z,6.13
2018-04-07T14:26:40.672Z,3.43
2018-04-07T14:29:07.904Z,2.03
2018-04-07T14:31:34.940Z,3.07
2018-04-07T14:34:02.103Z,4.13
2018-04-07T14:36:29.046Z,4.63
2018-04-07T14:38:56.017Z,2.87
2018-04-07T14:41:23.242Z,4.47
2018-04-07T14:43:50.498Z,3.53
2018-04-07T14:46:17.629Z,3.57
2018-04-07T14:48:44.862Z,2.20
2018-04-07T14:51:12.657Z,2.40
2018-04-07T14:53:39.673Z,2.20
2018-04-07T14:56:06.923Z,3.13
2018-04-07T14:58:34.201Z,2.17
2018-04-07T15:01:01.405Z,3.33
2018-04-07T15:03:28.602Z,2.47
2018-04-07T15:05:55.822Z,5.53
2018-04-07T15:08:22.982Z,4.13
2018-04-07T15:10:49.993Z,2.67
2018-04-07T15:13:17.014Z,2.90
2018-04-07T15:15:44.035Z,5.77
2018-04-07T15:18:11.163Z,5.37
2018-04-07T15:20:38.443Z,5.07
2018-04-07T15:23:05.663Z,2.70
2018-04-07T15:25:32.846Z,3.70
2018-04-07T15:28:00.123Z,7.20
2018-04-07T15:30:27.302Z,4.67
2018-04-07T15:32:54.522Z,3.37
2018-04-07T15:35:21.803Z,3.23
2018-04-07T15:37:49.002Z,4.10
2018-04-07T15:40:16.170Z,5.90
2018-04-07T15:42:43.932Z,5.10
2018-04-07T15:45:11.063Z,4.43
2018-04-07T15:47:38.302Z,3.93
2018-04-07T15:50:06.442Z,3.93
2018-04-07T15:52:34.442Z,4.70
2018-04-07T15:55:01.643Z,4.87
2018-04-07T15:57:29.642Z,4.80
2018-04-07T15:59:57.642Z,4.30
2018-04-07T16:02:24.843Z,7.07
2018-04-07T16:04:52.030Z,6.63
2018-04-07T16:07:19.205Z,4.73
2018-04-07T16:09:46.526Z,6.30
2018-04-07T16:12:13.822Z,5.70
2018-04-07T16:14:40.982Z,5.43
2018-04-07T16:17:08.103Z,5.87
2018-04-07T16:19:35.302Z,6.73
2018-04-07T16:22:02.524Z,6.13
2018-04-07T16:24:30.522Z,4.07
2018-04-07T16:26:57.817Z,5.57
2018-04-07T16:29:25.084Z,7.13
2018-04-07T16:31:52.302Z,5.50
2018-04-07T16:34:20.363Z,5.23
2018-04-07T16:36:48.282Z,5.73
2018-04-07T16:39:15.482Z,5.60
2018-04-07T16:41:43.502Z,4.17
2018-04-07T16:44:10.762Z,5.87
2018-04-07T16:46:38.842Z,5.70
2018-04-07T16:49:06.023Z,4.17
2018-04-07T16:51:33.143Z,6.67
2018-04-07T16:54:00.262Z,4.43
2018-04-07T16:56:27.564Z,7.43
2018-04-07T16:58:54.763Z,4.37
2018-04-07T17:01:21.950Z,5.43
2018-04-07T17:03:49.996Z,5.07
2018-04-07T17:06:17.402Z,4.57
2018-04-07T17:08:44.763Z,6.07
2018-04-07T17:11:12.042Z,6.83
2018-04-07T17:13:39.265Z,7.57
2018-04-07T17:16:06.443Z,6.20
2018-04-07T17:18:33.643Z,5.13
2018-04-07T17:21:00.923Z,4.50
2018-04-07T17:23:28.182Z,6.07
2018-04-07T17:25:56.102Z,5.13
2018-04-07T17:28:23.223Z,5.53
2018-04-07T17:30:57.562Z,4.43
2018-04-07T17:33:24.842Z,5.47
2018-04-07T17:35:52.043Z,4.57
2018-04-07T17:38:19.249Z,7.77
2018-04-07T17:40:46.683Z,4.37
2018-04-07T17:43:14.134Z,4.53
2018-04-07T17:45:41.502Z,4.90
2018-04-07T17:48:08.842Z,9.27
2018-04-07T17:50:36.043Z,6.40
2018-04-07T17:53:03.244Z,5.77
2018-04-07T17:55:30.525Z,5.27
2018-04-07T17:57:57.693Z,6.00
2018-04-07T18:00:24.822Z,6.40
2018-04-07T18:02:52.103Z,4.60
2018-04-07T18:05:19.302Z,7.17
2018-04-07T18:07:46.522Z,7.10
2018-04-07T18:10:13.883Z,5.53
2018-04-07T18:12:41.084Z,6.17
2018-04-07T18:15:08.362Z,6.93
2018-04-07T18:17:35.662Z,7.50
2018-04-07T18:20:02.973Z,8.60
2018-04-07T18:22:30.203Z,7.90
2018-04-07T18:24:57.601Z,9.80
2018-04-07T18:27:24.624Z,6.67
2018-04-07T18:29:51.805Z,6.70
2018-04-07T18:32:18.903Z,6.33
2018-04-07T18:34:46.023Z,6.27
2018-04-07T18:37:13.223Z,6.60
2018-04-07T18:39:40.498Z,6.80
2018-04-07T18:42:07.644Z,7.50
2018-04-07T18:44:34.902Z,6.80
2018-04-07T18:47:02.122Z,10.03
2018-04-07T18:49:29.323Z,10.77
2018-04-07T18:51:56.443Z,7.27
2018-04-07T18:54:23.663Z,8.73
2018-04-07T18:56:50.903Z,10.37
2018-04-07T18:59:18.144Z,7.70
2018-04-07T19:01:45.563Z,8.97
2018-04-07T19:04:13.567Z,10.37
2018-04-07T19:06:41.483Z,9.83
2018-04-07T19:09:08.843Z,9.50
2018-04-07T19:11:35.863Z,9.70
2018-04-07T19:14:02.983Z,11.70
2018-04-07T19:16:30.103Z,12.40
2018-04-07T19:18:57.304Z,10.27
2018-04-07T19:21:24.343Z,11.83
2018-04-07T19:23:51.623Z,11.23
2018-04-07T19:26:18.834Z,11.10
2018-04-07T19:28:46.043Z,11.10
2018-04-07T19:31:13.398Z,10.60
2018-04-07T19:33:40.584Z,11.93
2018-04-07T19:36:08.610Z,11.40
2018-04-07T19:38:35.947Z,11.27
2018-04-07T19:41:03.145Z,10.87
2018-04-07T19:43:30.446Z,10.97
2018-04-07T19:45:57.704Z,12.00
2018-04-07T19:48:24.828Z,11.70
2018-04-07T19:50:52.042Z,13.97
2018-04-07T19:53:19.263Z,10.80
2018-04-07T19:55:46.424Z,13.83
2018-04-07T19:58:13.543Z,11.93
2018-04-07T20:00:40.705Z,12.17
2018-04-07T20:03:07.863Z,12.43
2018-04-07T20:05:35.164Z,12.50
2018-04-07T20:08:02.423Z,12.93
2018-04-07T20:10:29.562Z,12.07
2018-04-07T20:12:56.764Z,13.00
2018-04-07T20:15:23.983Z,13.20
2018-04-07T20:17:51.145Z,12.43
2018-04-07T20:20:18.365Z,12.67
2018-04-07T20:22:46.444Z,11.80
2018-04-07T20:25:13.623Z,12.63
2018-04-07T20:27:40.743Z,13.20
2018-04-07T20:30:07.944Z,14.07
2018-04-07T20:32:35.083Z,11.30
2018-04-07T20:35:02.263Z,12.13
2018-04-07T20:37:29.423Z,12.57
2018-04-07T20:39:56.584Z,12.30
2018-04-07T20:42:27.706Z,12.83
2018-04-07T20:44:55.085Z,12.07
2018-04-07T20:47:23.164Z,13.57
2018-04-07T20:49:50.443Z,12.67
2018-04-07T20:52:17.663Z,12.13
2018-04-07T20:54:44.893Z,13.87
2018-04-07T20:57:12.824Z,12.30
2018-04-07T20:59:40.023Z,12.63
2018-04-07T21:02:07.223Z,12.60
2018-04-07T21:04:34.343Z,11.37
2018-04-07T21:07:01.543Z,12.43
2018-04-07T21:09:28.744Z,12.20
2018-04-07T21:11:56.663Z,12.93
2018-04-07T21:14:23.903Z,11.73
2018-04-07T21:16:51.064Z,12.23
2018-04-07T21:19:18.184Z,13.07
2018-04-07T21:21:45.384Z,11.10
2018-04-07T21:24:12.523Z,12.20
2018-04-07T21:26:39.804Z,14.03
2018-04-07T21:29:07.083Z,13.30
2018-04-07T21:31:34.343Z,13.03
2018-04-07T21:34:01.563Z,12.27
2018-04-07T21:36:29.785Z,11.80
2018-04-07T21:38:56.983Z,12.53
2018-04-07T21:41:24.144Z,13.77
2018-04-07T21:43:52.123Z,13.30
2018-04-07T21:46:19.303Z,11.87
2018-04-07T21:48:46.504Z,13.20
2018-04-07T21:51:13.723Z,15.43
2018-04-07T21:53:40.903Z,13.17
2018-04-07T21:56:08.104Z,14.83
2018-04-07T21:58:35.943Z,14.67
2018-04-07T22:01:03.224Z,13.53
2018-04-07T22:03:30.343Z,13.37
2018-04-07T22:05:57.503Z,12.83
2018-04-07T22:08:24.763Z,13.80
2018-04-07T22:10:52.103Z,12.43
2018-04-07T22:13:19.463Z,13.37
2018-04-07T22:15:46.663Z,14.17
2018-04-07T22:18:14.605Z,14.60
2018-04-07T22:20:41.943Z,15.50
2018-04-07T22:23:09.864Z,13.07
2018-04-07T22:25:37.143Z,13.30
2018-04-07T22:28:04.503Z,12.93
2018-04-07T22:30:31.803Z,13.83
2018-04-07T22:32:59.063Z,14.40
2018-04-07T22:35:26.383Z,15.13
2018-04-07T22:37:53.703Z,17.93
2018-04-07T22:40:20.987Z,15.37
2018-04-07T22:42:49.023Z,15.77
2018-04-07T22:45:16.182Z,14.37
2018-04-07T22:47:43.404Z,14.40
2018-04-07T22:50:10.662Z,14.80
2018-04-07T22:52:37.883Z,16.13
2018-04-07T22:55:05.064Z,15.90
2018-04-07T22:57:32.345Z,14.20
2018-04-07T22:59:59.546Z,15.73
2018-04-07T23:02:26.743Z,16.33
2018-04-07T23:04:54.024Z,14.20
2018-04-07T23:07:21.227Z,17.20
2018-04-07T23:09:48.431Z,15.03
2018-04-07T23:12:15.723Z,16.00
2018-04-07T23:14:42.904Z,14.03
2018-04-07T23:17:10.024Z,15.70
2018-04-07T23:19:37.322Z,15.07
2018-04-07T23:22:04.523Z,15.37
2018-04-07T23:24:32.424Z,15.53
2018-04-07T23:26:59.583Z,15.60
2018-04-07T23:29:26.743Z,15.20
2018-04-07T23:31:53.864Z,14.50
2018-04-07T23:34:21.103Z,14.53
2018-04-07T23:36:48.283Z,14.20
2018-04-07T23:39:15.476Z,16.30
2018-04-07T23:41:43.484Z,15.57
2018-04-07T23:44:10.683Z,16.00
2018-04-07T23:46:37.823Z,14.57
2018-04-07T23:49:05.063Z,15.63
2018-04-07T23:51:32.263Z,15.23
2018-04-07T23:53:59.464Z,17.47
2018-04-07T23:56:26.823Z,15.40
2018-04-07T23:58:53.969Z,16.37
